createdAt,value
2023-05-09T00:02:20.831Z,56.47
2023-05-09T00:04:48.144Z,57.59
2023-05-09T00:07:15.918Z,57.27
2023-05-09T00:09:43.177Z,57.42
2023-05-09T00:12:10.714Z,57.25
2023-05-09T00:14:38.228Z,57.21
2023-05-09T00:17:06.974Z,57.47
2023-05-09T00:19:34.203Z,57.83
2023-05-09T00:22:01.655Z,58.01
2023-05-09T00:24:29.108Z,58.13
2023-05-09T00:26:56.580Z,58.17
2023-05-09T00:29:24.136Z,58.44
2023-05-09T00:31:51.619Z,57.70
2023-05-09T00:34:21.522Z,58.28
2023-05-09T00:36:48.832Z,57.84
2023-05-09T00:39:16.113Z,57.65
2023-05-09T00:41:43.394Z,57.67
2023-05-09T00:44:10.671Z,58.44
2023-05-09T00:46:39.026Z,57.46
2023-05-09T00:49:06.437Z,57.54
2023-05-09T00:51:36.790Z,57.32
2023-05-09T00:54:04.047Z,56.73
2023-05-09T00:56:31.392Z,57.48
2023-05-09T00:59:00.140Z,56.66
2023-05-09T01:01:27.473Z,56.54
2023-05-09T01:03:55.614Z,57.08
2023-05-09T02:08:42.576Z,53.65
2023-05-09T02:11:09.886Z,53.96
2023-05-09T02:13:37.200Z,54.16
2023-05-09T02:16:06.331Z,53.94
2023-05-09T02:18:33.659Z,53.72
2023-05-09T02:21:01.307Z,54.04
2023-05-09T02:23:28.578Z,53.50
2023-05-09T02:25:57.594Z,53.85
2023-05-09T02:28:27.240Z,54.22
2023-05-09T02:30:58.691Z,54.29
2023-05-09T02:33:27.117Z,54.00
2023-05-09T02:35:56.320Z,54.58
2023-05-09T02:38:24.358Z,55.12
2023-05-09T02:40:52.718Z,54.58
2023-05-09T02:43:21.385Z,54.49
2023-05-09T02:45:50.142Z,54.63
2023-05-09T02:48:17.338Z,54.71
2023-05-09T02:50:44.818Z,55.12
2023-05-09T02:53:12.294Z,55.51
2023-05-09T02:55:41.882Z,54.98
2023-05-09T02:58:14.157Z,55.30
2023-05-09T03:00:43.816Z,54.80
2023-05-09T03:03:11.256Z,55.40
2023-05-09T03:05:38.576Z,55.28
2023-05-09T03:08:05.919Z,55.73
2023-05-09T03:10:33.106Z,55.68
2023-05-09T03:13:01.584Z,56.09
2023-05-09T03:15:28.854Z,56.67
2023-05-09T03:17:57.466Z,55.75
2023-05-09T03:20:26.592Z,55.88
2023-05-09T03:22:53.803Z,55.21
2023-05-09T03:25:21.250Z,56.90
2023-05-09T03:27:48.524Z,56.37
2023-05-09T03:30:15.931Z,57.05
2023-05-09T03:32:43.337Z,58.22
2023-05-09T03:35:12.009Z,57.01
2023-05-09T03:37:39.320Z,57.74
2023-05-09T03:40:08.019Z,56.95
2023-05-09T03:42:35.274Z,56.69
2023-05-09T03:45:02.549Z,57.11
2023-05-09T03:47:30.052Z,56.42
2023-05-09T03:49:57.312Z,56.76
2023-05-09T03:52:26.931Z,56.51
2023-05-09T03:54:54.184Z,56.64
2023-05-09T03:57:21.408Z,57.75
2023-05-09T03:59:48.655Z,57.81
2023-05-09T04:02:16.029Z,58.18
2023-05-09T04:04:43.322Z,58.01
2023-05-09T04:07:12.367Z,57.42
2023-05-09T04:09:42.005Z,57.69
2023-05-09T04:12:09.491Z,57.35
2023-05-09T04:14:36.719Z,57.27
2023-05-09T04:17:03.997Z,57.46
2023-05-09T04:19:31.262Z,57.71
2023-05-09T04:21:58.566Z,58.96
2023-05-09T04:24:25.806Z,58.63
2023-05-09T04:26:55.477Z,58.05
2023-05-09T04:29:22.717Z,57.54
2023-05-09T04:31:50.357Z,58.29
2023-05-09T04:34:17.702Z,58.08
2023-05-09T04:36:45.402Z,57.43
2023-05-09T04:39:12.658Z,56.63
2023-05-09T04:41:39.834Z,56.93
2023-05-09T04:44:08.423Z,56.42
2023-05-09T04:46:35.656Z,56.14
2023-05-09T04:49:02.897Z,55.99
2023-05-09T04:51:30.103Z,55.16
2023-05-09T04:53:57.370Z,53.83
2023-05-09T04:56:24.608Z,53.50
2023-05-09T04:58:51.859Z,52.98
2023-05-09T05:01:20.483Z,53.52
2023-05-09T05:03:47.958Z,51.97
2023-05-09T05:06:16.624Z,52.04
2023-05-09T05:08:43.877Z,52.77
2023-05-09T05:11:11.572Z,52.49
2023-05-09T05:13:40.252Z,52.13
2023-05-09T05:16:07.537Z,51.52
2023-05-09T05:18:36.113Z,50.60
2023-05-09T05:21:03.599Z,50.94
2023-05-09T05:23:30.911Z,51.83
2023-05-09T05:25:58.149Z,52.37
2023-05-09T05:28:26.335Z,51.77
2023-05-09T05:30:54.586Z,51.82
2023-05-09T05:33:21.840Z,51.27
2023-05-09T05:35:50.504Z,51.41
2023-05-09T05:38:17.699Z,50.64
2023-05-09T05:40:45.197Z,51.49
2023-05-09T05:43:12.451Z,51.17
2023-05-09T05:45:39.915Z,50.84
2023-05-09T05:48:07.408Z,50.82
2023-05-09T05:50:34.981Z,52.39
2023-05-09T05:53:03.575Z,51.89
2023-05-09T05:55:32.184Z,50.44
2023-05-09T05:57:59.487Z,50.75
2023-05-09T06:00:26.706Z,50.84
2023-05-09T06:02:53.997Z,50.36
2023-05-09T06:05:21.278Z,49.69
2023-05-09T06:07:48.501Z,49.68
2023-05-09T06:10:17.058Z,48.44
2023-05-09T06:12:44.561Z,48.33
2023-05-09T06:15:11.926Z,48.26
2023-05-09T06:17:41.532Z,48.89
2023-05-09T06:20:10.401Z,48.82
2023-05-09T06:22:38.089Z,47.92
2023-05-09T06:25:08.713Z,46.98
2023-05-09T06:27:38.869Z,46.70
2023-05-09T06:30:23.934Z,47.06
2023-05-09T06:32:53.483Z,46.63
2023-05-09T06:35:20.779Z,46.21
2023-05-09T06:37:48.787Z,45.27
2023-05-09T06:40:16.799Z,45.18
2023-05-09T06:42:45.645Z,45.17
2023-05-09T06:45:13.029Z,44.96
2023-05-09T06:47:41.177Z,44.66
2023-05-09T06:50:08.679Z,44.44
2023-05-09T06:52:35.814Z,44.76
2023-05-09T06:55:04.948Z,44.49
2023-05-09T06:57:32.526Z,44.01
2023-05-09T07:00:01.453Z,43.90
2023-05-09T07:02:28.730Z,43.48
2023-05-09T07:04:56.058Z,43.55
2023-05-09T07:07:24.775Z,42.72
2023-05-09T07:09:55.260Z,44.51
2023-05-09T07:12:28.046Z,44.50
2023-05-09T07:14:56.297Z,43.68
2023-05-09T07:17:25.030Z,42.19
2023-05-09T07:19:52.409Z,41.13
2023-05-09T07:22:19.640Z,40.91
2023-05-09T07:24:46.876Z,41.12
2023-05-09T07:27:14.226Z,41.36
2023-05-09T07:29:41.611Z,42.19
2023-05-09T07:32:09.203Z,42.53
2023-05-09T07:34:38.238Z,41.64
2023-05-09T07:37:05.547Z,41.60
2023-05-09T07:39:32.785Z,41.63
2023-05-09T07:42:01.113Z,41.21
2023-05-09T07:44:28.436Z,41.00
2023-05-09T07:46:57.120Z,41.46
2023-05-09T07:49:24.401Z,41.28
2023-05-09T07:51:56.219Z,41.24
2023-05-09T07:54:23.602Z,40.48
2023-05-09T07:56:51.213Z,41.63
2023-05-09T07:59:21.392Z,40.93
2023-05-09T08:01:48.794Z,41.25
2023-05-09T08:04:16.355Z,40.62
2023-05-09T08:06:44.584Z,39.38
2023-05-09T08:09:13.228Z,39.43
2023-05-09T08:11:40.462Z,38.12
2023-05-09T08:14:07.663Z,37.63
2023-05-09T08:16:35.972Z,38.48
2023-05-09T08:19:03.531Z,39.41
2023-05-09T08:21:30.723Z,38.27
2023-05-09T08:23:57.910Z,37.31
2023-05-09T08:26:26.781Z,36.99
2023-05-09T08:28:54.001Z,36.64
2023-05-09T08:31:21.231Z,37.18
2023-05-09T08:33:48.458Z,37.61
2023-05-09T08:36:19.028Z,38.59
2023-05-09T08:38:46.565Z,36.56
2023-05-09T08:41:13.931Z,35.52
2023-05-09T08:43:43.346Z,35.47
2023-05-09T08:46:11.569Z,35.13
2023-05-09T08:48:39.604Z,35.58
2023-05-09T08:51:07.712Z,35.94
2023-05-09T08:53:35.389Z,34.75
2023-05-09T08:56:04.281Z,33.76
2023-05-09T08:58:31.631Z,31.51
2023-05-09T09:01:02.037Z,30.99
2023-05-09T09:03:30.327Z,28.74
2023-05-09T09:05:58.836Z,26.39
2023-05-09T09:08:27.327Z,26.30
2023-05-09T09:10:55.097Z,26.07
2023-05-09T09:13:23.257Z,26.67
2023-05-09T09:15:54.473Z,26.35
2023-05-09T09:18:29.426Z,27.32
2023-05-09T09:20:59.473Z,27.01
2023-05-09T09:23:27.737Z,27.95
2023-05-09T09:25:59.707Z,27.89
2023-05-09T09:28:27.644Z,28.42
2023-05-09T09:30:55.152Z,27.50
2023-05-09T09:33:27.139Z,28.35
2023-05-09T09:35:56.244Z,27.46
2023-05-09T09:38:24.771Z,27.52
2023-05-09T09:40:56.299Z,28.34
2023-05-09T09:43:30.260Z,28.49
2023-05-09T09:46:00.621Z,28.30
2023-05-09T09:48:31.710Z,27.55
2023-05-09T09:51:03.968Z,25.48
2023-05-09T09:53:38.966Z,25.07
2023-05-09T09:56:06.821Z,25.23
2023-05-09T09:58:35.811Z,26.27
2023-05-09T10:01:07.314Z,28.52
2023-05-09T10:03:40.748Z,26.06
2023-05-09T10:06:11.847Z,24.38
2023-05-09T10:08:39.618Z,24.90
2023-05-09T10:11:07.205Z,25.33
2023-05-09T10:13:36.680Z,24.70
2023-05-09T10:16:05.537Z,24.74
2023-05-09T10:18:33.386Z,25.00
2023-05-09T10:21:07.930Z,25.26
2023-05-09T10:23:40.639Z,25.41
2023-05-09T10:26:16.411Z,24.83
2023-05-09T10:28:45.668Z,25.44
2023-05-09T10:31:19.839Z,25.11
2023-05-09T10:33:48.926Z,25.12
2023-05-09T10:36:19.710Z,25.51
2023-05-09T10:38:47.614Z,24.85
2023-05-09T10:41:17.014Z,24.83
2023-05-09T10:43:45.868Z,25.29
2023-05-09T10:46:13.914Z,25.18
2023-05-09T10:48:43.477Z,25.94
2023-05-09T10:51:12.396Z,24.70
2023-05-09T10:53:46.195Z,24.93
2023-05-09T10:56:23.958Z,25.27
2023-05-09T10:58:51.203Z,25.68
2023-05-09T11:01:29.410Z,24.55
2023-05-09T11:03:58.154Z,23.95
2023-05-09T11:06:47.170Z,24.26
2023-05-09T11:09:50.850Z,23.73
2023-05-09T11:12:20.510Z,23.27
2023-05-09T11:14:50.646Z,23.95
2023-05-09T11:17:29.049Z,23.45
2023-05-09T11:20:02.929Z,23.47
2023-05-09T11:22:31.340Z,23.67
2023-05-09T11:25:08.113Z,23.03
2023-05-09T11:27:42.107Z,22.65
2023-05-09T11:30:11.671Z,22.46
2023-05-09T11:32:47.201Z,22.08
2023-05-09T11:35:16.422Z,22.38
2023-05-09T11:37:48.686Z,22.65
2023-05-09T11:40:18.246Z,22.74
2023-05-09T11:42:47.096Z,22.04
2023-05-09T11:45:15.639Z,21.63
2023-05-09T11:47:44.270Z,22.04
2023-05-09T11:50:13.432Z,20.97
2023-05-09T11:52:41.192Z,21.71
2023-05-09T11:55:15.608Z,22.36
2023-05-09T11:57:45.775Z,22.47
2023-05-09T12:00:16.032Z,22.60
2023-05-09T12:02:44.812Z,23.18
2023-05-09T12:05:14.283Z,21.95
2023-05-09T12:07:41.883Z,22.10
2023-05-09T12:10:09.821Z,22.50
2023-05-09T12:12:45.096Z,22.68
2023-05-09T12:15:14.098Z,23.58
2023-05-09T12:17:48.261Z,22.56
2023-05-09T12:20:17.989Z,22.39
2023-05-09T12:22:52.517Z,21.78
2023-05-09T12:25:19.754Z,21.08
2023-05-09T12:27:49.400Z,22.44
2023-05-09T12:30:17.826Z,22.75
2023-05-09T12:32:45.198Z,21.65
2023-05-09T12:35:12.258Z,22.19
2023-05-09T12:37:39.501Z,21.77
2023-05-09T12:40:11.504Z,22.42
2023-05-09T12:42:40.546Z,23.74
2023-05-09T12:45:12.350Z,22.92
2023-05-09T12:47:39.689Z,23.51
2023-05-09T12:50:10.825Z,23.06
2023-05-09T12:52:50.134Z,22.79
2023-05-09T12:55:21.730Z,23.55
2023-05-09T12:57:59.698Z,23.17
2023-05-09T13:00:29.034Z,23.74
2023-05-09T13:02:56.497Z,22.94
2023-05-09T13:05:23.665Z,23.44
2023-05-09T13:07:51.926Z,23.21
2023-05-09T13:10:23.194Z,23.89
2023-05-09T13:12:51.632Z,22.34
2023-05-09T13:15:23.234Z,25.04
2023-05-09T13:17:52.446Z,22.42
2023-05-09T13:20:19.865Z,22.73
2023-05-09T13:22:47.205Z,21.78
2023-05-09T13:25:14.744Z,23.33
2023-05-09T13:27:42.014Z,23.06
2023-05-09T13:30:09.786Z,23.21
2023-05-09T13:32:37.210Z,23.47
2023-05-09T13:35:08.816Z,22.71
2023-05-09T13:37:36.077Z,21.70
2023-05-09T13:40:04.655Z,21.28
2023-05-09T13:42:33.519Z,22.96
2023-05-09T13:45:01.133Z,22.20
2023-05-09T13:47:32.011Z,22.31
2023-05-09T13:49:59.306Z,22.82
2023-05-09T13:52:27.893Z,23.39
2023-05-09T13:54:55.211Z,23.54
2023-05-09T13:57:22.407Z,24.27
2023-05-09T13:59:49.659Z,26.41
2023-05-09T14:02:20.604Z,26.24
2023-05-09T14:04:47.832Z,25.53
2023-05-09T14:07:15.332Z,25.85
2023-05-09T14:09:43.971Z,26.45
2023-05-09T14:12:12.491Z,26.50
2023-05-09T14:14:40.699Z,25.90
2023-05-09T14:17:08.158Z,27.03
2023-05-09T14:19:35.376Z,26.08
2023-05-09T14:22:02.565Z,26.61
2023-05-09T14:24:29.899Z,26.99
2023-05-09T14:27:00.659Z,26.88
2023-05-09T14:29:28.111Z,26.97
2023-05-09T14:31:55.457Z,27.18
2023-05-09T14:34:22.803Z,26.68
2023-05-09T14:36:50.092Z,26.87
2023-05-09T14:39:17.327Z,27.32
2023-05-09T14:41:44.624Z,27.41
2023-05-09T14:44:13.189Z,26.49
2023-05-09T14:46:41.613Z,27.24
2023-05-09T14:49:09.036Z,27.46
2023-05-09T14:51:36.246Z,27.27
2023-05-09T14:54:04.679Z,27.25
2023-05-09T14:56:32.373Z,26.28
2023-05-09T14:58:59.387Z,27.28
2023-05-09T15:01:29.177Z,26.88
2023-05-09T15:03:56.412Z,26.43
2023-05-09T15:06:23.675Z,26.64
2023-05-09T15:08:53.798Z,28.14
2023-05-09T15:11:22.551Z,26.86
2023-05-09T15:13:53.279Z,27.67
2023-05-09T15:16:20.888Z,27.75
2023-05-09T15:18:50.645Z,28.36
2023-05-09T15:21:17.838Z,27.91
2023-05-09T15:23:45.018Z,27.84
2023-05-09T15:26:12.486Z,28.02
2023-05-09T15:28:41.109Z,27.85
2023-05-09T15:31:08.392Z,28.46
2023-05-09T15:33:35.715Z,28.50
2023-05-09T15:36:06.515Z,28.52
2023-05-09T15:38:34.489Z,28.02
2023-05-09T15:41:01.701Z,29.50
2023-05-09T15:43:30.222Z,28.84
2023-05-09T15:45:57.449Z,28.71
2023-05-09T15:48:24.824Z,28.18
2023-05-09T15:50:53.011Z,28.54
2023-05-09T15:53:21.586Z,29.11
2023-05-09T15:55:48.795Z,29.26
2023-05-09T15:58:16.057Z,28.83
2023-05-09T16:00:43.279Z,28.42
2023-05-09T16:03:10.610Z,29.26
2023-05-09T16:05:37.960Z,28.65
2023-05-09T16:08:05.305Z,29.10
2023-05-09T16:10:34.157Z,29.30
2023-05-09T16:13:01.466Z,30.03
2023-05-09T16:15:28.763Z,30.40
2023-05-09T16:17:56.006Z,29.85
2023-05-09T16:20:23.596Z,29.60
2023-05-09T16:22:50.696Z,29.94
2023-05-09T16:27:40.592Z,30.42
2023-05-09T16:30:10.462Z,30.38
2023-05-09T16:32:37.693Z,30.09
2023-05-09T16:35:06.180Z,31.48
2023-05-09T16:37:35.406Z,30.57
2023-05-09T16:40:03.278Z,31.98
2023-05-09T16:42:30.598Z,31.69
2023-05-09T16:45:00.544Z,31.54
2023-05-09T16:47:27.809Z,31.64
2023-05-09T16:49:55.023Z,31.67
2023-05-09T16:52:22.249Z,31.59
2023-05-09T16:54:49.715Z,31.72
2023-05-09T16:57:16.972Z,31.16
2023-05-09T16:59:44.169Z,31.20
2023-05-09T17:02:12.791Z,31.61
2023-05-09T17:04:40.155Z,31.90
2023-05-09T17:07:07.403Z,31.76
2023-05-09T17:09:34.592Z,32.76
2023-05-09T17:12:02.066Z,32.71
2023-05-09T17:14:29.286Z,32.43
2023-05-09T17:16:56.586Z,32.91
2023-05-09T17:19:25.290Z,32.87
2023-05-09T17:21:52.731Z,32.86
2023-05-09T17:24:22.981Z,32.60
2023-05-09T17:26:50.240Z,32.59
2023-05-09T17:29:17.788Z,33.47
2023-05-09T17:31:45.265Z,33.14
2023-05-09T17:34:12.492Z,32.62
2023-05-09T17:36:42.158Z,32.99
2023-05-09T17:39:09.346Z,33.43
2023-05-09T17:41:38.160Z,33.14
2023-05-09T17:44:05.765Z,33.56
2023-05-09T17:46:33.124Z,34.75
2023-05-09T17:49:00.456Z,34.42
2023-05-09T17:51:27.933Z,34.85
2023-05-09T17:53:56.525Z,35.04
2023-05-09T17:56:24.074Z,34.93
2023-05-09T17:58:51.238Z,35.20
2023-05-09T18:01:18.887Z,35.17
2023-05-09T18:03:46.683Z,35.03
2023-05-09T18:06:14.042Z,35.25
2023-05-09T18:08:41.336Z,35.09
2023-05-09T18:11:12.101Z,35.27
2023-05-09T18:13:39.306Z,35.06
2023-05-09T18:16:08.680Z,36.16
2023-05-09T18:18:36.213Z,35.76
2023-05-09T18:21:04.809Z,36.60
2023-05-09T18:23:33.330Z,35.34
2023-05-09T18:26:00.636Z,35.29
2023-05-09T18:28:29.365Z,35.15
2023-05-09T18:30:59.102Z,35.07
2023-05-09T18:33:29.010Z,35.34
2023-05-09T18:35:56.270Z,35.97
2023-05-09T18:38:23.478Z,35.65
2023-05-09T18:40:50.737Z,35.74
2023-05-09T18:43:17.970Z,35.77
2023-05-09T18:45:46.630Z,35.62
2023-05-09T18:48:15.335Z,37.11
2023-05-09T18:50:42.621Z,36.42
2023-05-09T18:53:09.861Z,36.30
2023-05-09T18:55:37.174Z,36.44
2023-05-09T18:58:04.732Z,36.52
2023-05-09T19:00:31.949Z,37.14
2023-05-09T19:03:00.634Z,36.59
2023-05-09T19:05:27.916Z,36.63
2023-05-09T19:07:55.139Z,37.10
2023-05-09T19:10:22.379Z,37.02
2023-05-09T19:12:49.719Z,36.77
2023-05-09T19:15:17.035Z,36.68
2023-05-09T19:17:44.357Z,36.72
2023-05-09T19:20:13.645Z,36.73
2023-05-09T19:22:41.182Z,37.29
2023-05-09T19:25:09.686Z,36.82
2023-05-09T19:27:36.946Z,36.99
2023-05-09T19:30:05.159Z,37.19
2023-05-09T19:32:32.411Z,37.08
2023-05-09T19:35:00.131Z,37.68
2023-05-09T19:37:29.091Z,38.17
2023-05-09T19:39:57.738Z,37.92
2023-05-09T19:42:24.996Z,37.83
2023-05-09T19:44:53.757Z,37.31
2023-05-09T19:47:20.966Z,37.51
2023-05-09T19:49:48.434Z,37.74
2023-05-09T19:52:15.646Z,37.74
2023-05-09T19:54:44.283Z,37.91
2023-05-09T19:57:11.567Z,37.83
2023-05-09T19:59:40.255Z,38.29
2023-05-09T20:02:07.696Z,38.86
2023-05-09T20:04:38.732Z,38.62
2023-05-09T20:07:06.169Z,38.32
2023-05-09T20:09:33.374Z,38.43
2023-05-09T20:12:02.731Z,39.45
2023-05-09T20:14:29.908Z,39.55
2023-05-09T20:16:57.502Z,39.38
2023-05-09T20:19:24.873Z,40.05
2023-05-09T20:21:52.141Z,39.92
2023-05-09T20:24:19.557Z,40.71
2023-05-09T20:26:46.732Z,40.68
2023-05-09T20:29:15.385Z,40.50
2023-05-09T20:31:43.308Z,40.32
2023-05-09T20:34:10.370Z,40.65
2023-05-09T20:36:37.515Z,40.74
2023-05-09T20:39:05.011Z,40.52
2023-05-09T20:41:32.222Z,41.05
2023-05-09T20:43:59.422Z,41.22
2023-05-09T20:46:28.096Z,41.67
2023-05-09T20:48:55.438Z,41.47
2023-05-09T20:51:22.697Z,42.00
2023-05-09T20:53:50.955Z,41.56
2023-05-09T20:56:18.193Z,42.19
2023-05-09T20:58:45.642Z,41.96
2023-05-09T21:01:12.924Z,42.36
2023-05-09T21:03:41.602Z,41.97
2023-05-09T21:06:10.152Z,43.39
2023-05-09T21:08:37.738Z,43.32
2023-05-09T21:11:04.986Z,43.17
2023-05-09T21:13:32.416Z,43.74
2023-05-09T21:15:59.646Z,42.98
2023-05-09T21:18:26.845Z,43.64
2023-05-09T21:20:55.474Z,43.06
2023-05-09T21:23:24.182Z,43.50
2023-05-09T21:25:51.412Z,44.32
2023-05-09T21:28:18.641Z,44.16
2023-05-09T21:30:50.670Z,44.19
2023-05-09T21:33:18.011Z,43.93
2023-05-09T21:35:45.394Z,44.05
2023-05-09T21:38:14.299Z,44.43
2023-05-09T21:40:41.757Z,45.83
2023-05-09T21:43:09.102Z,45.25
2023-05-09T21:45:36.632Z,45.81
2023-05-09T21:48:04.396Z,45.03
2023-05-09T21:50:31.716Z,45.54
2023-05-09T21:52:59.100Z,46.28
2023-05-09T21:55:27.790Z,45.73
2023-05-09T21:57:55.069Z,46.41
2023-05-09T22:00:22.423Z,46.43
2023-05-09T22:02:54.639Z,47.03
2023-05-09T22:05:22.966Z,47.32
2023-05-09T22:07:50.504Z,47.75
2023-05-09T22:10:19.835Z,47.65
2023-05-09T22:12:48.569Z,47.71
2023-05-09T22:15:15.953Z,48.59
2023-05-09T22:17:43.300Z,48.12
2023-05-09T22:20:11.991Z,48.33
2023-05-09T22:22:39.210Z,48.00
2023-05-09T22:25:10.064Z,48.28
2023-05-09T22:27:37.571Z,47.58
2023-05-09T22:30:08.119Z,48.98
2023-05-09T22:32:35.353Z,48.60
2023-05-09T22:35:02.883Z,48.43
2023-05-09T22:37:30.554Z,49.22
2023-05-09T22:39:57.755Z,48.86
2023-05-09T22:42:28.336Z,49.70
2023-05-09T22:44:56.352Z,49.91
2023-05-09T22:47:25.090Z,49.83
2023-05-09T22:49:52.575Z,49.97
2023-05-09T22:52:20.935Z,50.55
2023-05-09T22:54:48.099Z,50.62
2023-05-09T22:57:15.479Z,51.33
2023-05-09T22:59:42.994Z,50.83
2023-05-09T23:02:10.370Z,51.43
2023-05-09T23:04:47.726Z,52.90
2023-05-09T23:07:15.268Z,52.62
2023-05-09T23:09:42.563Z,51.63
2023-05-09T23:12:09.784Z,51.40
2023-05-09T23:14:38.288Z,51.95
2023-05-09T23:17:05.532Z,52.04
2023-05-09T23:19:32.848Z,51.89
2023-05-09T23:22:01.466Z,51.72
2023-05-09T23:24:28.763Z,51.55
2023-05-09T23:26:55.971Z,52.66
2023-05-09T23:29:23.608Z,53.20
2023-05-09T23:31:51.049Z,52.88
2023-05-09T23:34:18.582Z,53.93
2023-05-09T23:36:45.767Z,53.39
2023-05-09T23:39:15.754Z,53.78
2023-05-09T23:41:43.038Z,53.31
2023-05-09T23:44:10.986Z,53.20
2023-05-09T23:46:38.147Z,53.06
2023-05-09T23:49:05.322Z,53.44
2023-05-09T23:51:32.589Z,54.12
2023-05-09T23:53:59.839Z,53.97
2023-05-09T23:56:28.471Z,53.79
2023-05-09T23:58:55.740Z,54.32
